Time;durP1;ratioP1;P1;durP2;ratioP2;P2;SDS_P1;SDS_P2;PMS_P1;PMS_P2;Temp;Humidity;BMP_temperature;BMP_pressure;BME280_temperature;BME280_humidity;BME280_pressure;Samples;Min_cycle;Max_cycle;Signal;HPM_P1;HPM_P2
2022/11/24 00:01:05;;;;;;;21.67;4.88;;;;;;;7.52;100.00;100100.72;5023320;28;20030;-65
2022/11/24 00:03:31;;;;;;;23.60;4.60;;;;;;;7.50;100.00;100100.09;5031883;28;20036;-66
2022/11/24 00:06:03;;;;;;;24.25;5.13;;;;;;;7.48;100.00;100102.19;5032280;28;20025;-65
2022/11/24 00:08:28;;;;;;;25.63;5.13;;;;;;;7.45;100.00;100094.56;5032500;28;20056;-66
2022/11/24 00:10:54;;;;;;;26.20;5.18;;;;;;;7.48;100.00;100096.00;5032436;28;20053;-66
2022/11/24 00:13:19;;;;;;;21.15;4.43;;;;;;;7.49;100.00;100098.47;5031879;28;20037;-66
2022/11/24 00:15:44;;;;;;;23.45;5.00;;;;;;;7.49;100.00;100103.84;5031775;28;20064;-66
2022/11/24 00:18:09;;;;;;;22.67;4.57;;;;;;;7.47;100.00;100114.00;5032494;28;20104;-65
2022/11/24 00:20:35;;;;;;;21.90;4.35;;;;;;;7.48;100.00;100115.66;5032284;28;20053;-66
2022/11/24 00:23:00;;;;;;;22.17;5.03;;;;;;;7.50;100.00;100124.31;5031714;28;20057;-65
2022/11/24 00:25:25;;;;;;;20.10;4.47;;;;;;;7.49;100.00;100120.00;5031922;28;20468;-65
2022/11/24 00:27:51;;;;;;;22.13;5.40;;;;;;;7.48;100.00;100126.44;5032698;28;20026;-66
2022/11/24 00:30:16;;;;;;;20.48;4.82;;;;;;;7.49;100.00;100128.09;5030251;28;20034;-65
2022/11/24 00:32:42;;;;;;;20.83;4.50;;;;;;;7.48;100.00;100118.34;5032169;28;20026;-66
2022/11/24 00:35:07;;;;;;;19.65;4.18;;;;;;;7.48;100.00;100118.34;5031066;28;20021;-66
2022/11/24 00:37:33;;;;;;;18.25;4.30;;;;;;;7.48;100.00;100117.53;5032088;28;20042;-67
2022/11/24 00:39:58;;;;;;;17.42;4.07;;;;;;;7.45;100.00;100121.50;5032063;28;20389;-66
2022/11/24 00:42:23;;;;;;;20.02;3.97;;;;;;;7.43;100.00;100121.72;5032089;28;20029;-66
2022/11/24 00:44:49;;;;;;;24.27;4.43;;;;;;;7.44;100.00;100123.38;5029993;28;20029;-66
2022/11/24 00:47:14;;;;;;;19.98;4.15;;;;;;;7.45;100.00;100119.63;5029557;28;20025;-66
2022/11/24 00:49:39;;;;;;;20.02;4.50;;;;;;;7.47;100.00;100132.03;5031893;28;20033;-66
2022/11/24 00:52:05;;;;;;;21.40;4.78;;;;;;;7.45;100.00;100130.38;5032233;28;20030;-66
2022/11/24 00:54:30;;;;;;;20.38;4.50;;;;;;;7.44;100.00;100130.59;5032029;28;20025;-66
2022/11/24 00:56:55;;;;;;;23.13;4.72;;;;;;;7.46;100.00;100139.28;5031388;28;20036;-66
2022/11/24 00:59:21;;;;;;;19.45;4.60;;;;;;;7.46;100.00;100136.59;5031916;28;20060;-66
2022/11/24 01:01:46;;;;;;;17.75;4.00;;;;;;;7.47;100.00;100132.84;5027617;28;20130;-66
2022/11/24 01:04:11;;;;;;;21.70;4.47;;;;;;;7.46;100.00;100142.00;5032106;28;20037;-65
2022/11/24 01:06:37;;;;;;;20.17;4.05;;;;;;;7.44;100.00;100144.91;5031010;28;20029;-65
2022/11/24 01:09:02;;;;;;;18.95;4.60;;;;;;;7.48;100.00;100149.84;5030747;28;20053;-66
2022/11/24 01:12:00;;;;;;;21.17;4.22;;;;;;;7.45;100.00;100159.19;5031793;28;20076;-66
2022/11/24 01:14:16;;;;;;;22.90;4.45;;;;;;;7.40;100.00;100156.34;5031970;28;20120;-66
2022/11/24 01:16:42;;;;;;;19.08;4.10;;;;;;;7.40;100.00;100159.03;5028985;28;20033;-66
2022/11/24 01:19:07;;;;;;;21.25;4.70;;;;;;;7.42;100.00;100156.94;5035562;28;20026;-66
2022/11/24 01:21:32;;;;;;;19.17;3.97;;;;;;;7.41;100.00;100158.81;5035060;28;20057;-65
2022/11/24 01:23:58;;;;;;;17.75;4.10;;;;;;;7.40;100.00;100162.53;5035816;28;20029;-66
2022/11/24 01:26:23;;;;;;;17.58;4.05;;;;;;;7.41;100.00;100160.66;5028305;28;20030;-66
2022/11/24 01:28:55;;;;;;;23.10;4.80;;;;;;;7.36;100.00;100164.00;5015653;28;20033;-65
2022/11/24 01:31:22;;;;;;;20.42;4.45;;;;;;;7.38;100.00;100163.78;5023751;28;20392;-66
2022/11/24 01:33:47;;;;;;;18.55;4.30;;;;;;;7.36;100.00;100163.19;5035304;28;20025;-66
2022/11/24 01:36:12;;;;;;;16.88;4.07;;;;;;;7.36;100.00;100172.09;5034482;28;20028;-66
2022/11/24 01:38:38;;;;;;;22.17;4.43;;;;;;;7.31;100.00;100174.63;5035035;28;20144;-65
2022/11/24 01:41:13;;;;;;;20.55;4.40;;;;;;;7.30;100.00;100164.09;5035481;28;20030;-66
2022/11/24 01:43:43;;;;;;;17.23;4.10;;;;;;;7.25;100.00;100170.94;5034968;28;20033;-65
2022/11/24 01:46:29;;;;;;;20.58;4.68;;;;;;;7.30;100.00;100175.66;5033175;28;20037;-65
2022/11/24 01:49:16;;;;;;;25.65;4.97;;;;;;;7.31;100.00;100179.16;5034395;28;20381;-65
2022/11/24 01:51:49;;;;;;;22.10;4.68;;;;;;;7.31;100.00;100182.69;5034775;28;20033;-65
2022/11/24 01:54:29;;;;;;;19.92;4.32;;;;;;;7.30;100.00;100186.44;5034961;28;20037;-66
2022/11/24 01:56:59;;;;;;;19.38;4.40;;;;;;;7.27;100.00;100176.09;5031479;28;20029;-65
2022/11/24 01:59:24;;;;;;;17.92;4.18;;;;;;;7.27;100.00;100185.00;5031424;28;20040;-66
2022/11/24 02:01:51;;;;;;;19.38;4.13;;;;;;;7.27;100.00;100190.38;5030899;28;20054;-66
2022/11/24 02:04:22;;;;;;;15.85;3.92;;;;;;;7.31;100.00;100196.16;5034832;28;20030;-65
2022/11/24 02:06:50;;;;;;;22.73;4.57;;;;;;;7.28;100.00;100191.22;5025065;28;20163;-66
2022/11/24 02:09:28;;;;;;;20.70;4.78;;;;;;;7.30;100.00;100204.44;5014901;28;20033;-66
2022/11/24 02:11:54;;;;;;;20.20;4.82;;;;;;;7.28;100.00;100201.97;5014318;28;20050;-65
2022/11/24 02:14:22;;;;;;;22.52;4.97;;;;;;;7.25;100.00;100203.22;5014796;28;20391;-66
2022/11/24 02:16:49;;;;;;;23.50;4.72;;;;;;;7.25;100.00;100208.63;5021235;28;20080;-65
2022/11/24 02:19:33;;;;;;;21.77;4.72;;;;;;;7.27;100.00;100213.78;5034492;28;20033;-66
2022/11/24 02:22:00;;;;;;;24.17;4.47;;;;;;;7.25;100.00;100219.38;5034409;28;20025;-66
2022/11/24 02:24:41;;;;;;;24.65;4.82;;;;;;;7.27;100.00;100211.09;5034124;28;20108;-65
2022/11/24 02:27:08;;;;;;;21.70;4.30;;;;;;;7.26;100.00;100212.97;5033877;28;20112;-66
2022/11/24 02:29:33;;;;;;;33.13;5.40;;;;;;;7.26;100.00;100209.44;5031648;28;20033;-65
2022/11/24 02:32:03;;;;;;;21.67;4.93;;;;;;;7.27;100.00;100219.16;5033027;28;20510;-65
2022/11/24 02:34:28;;;;;;;21.10;4.95;;;;;;;7.30;100.00;100212.53;5033924;28;20040;-66
2022/11/24 02:36:54;;;;;;;19.67;4.60;;;;;;;7.33;100.00;100217.47;5033592;28;20038;-65
2022/11/24 02:39:20;;;;;;;24.67;5.07;;;;;;;7.31;100.00;100220.38;5034123;28;20135;-65
2022/11/24 02:41:55;;;;;;;19.73;4.50;;;;;;;7.34;100.00;100222.63;5033513;28;20041;-66
2022/11/24 02:44:24;;;;;;;22.67;4.82;;;;;;;7.31;100.00;100231.16;5033757;28;20104;-66
2022/11/24 02:47:10;;;;;;;23.33;5.45;;;;;;;7.37;100.00;100226.75;5031869;28;20656;-66
2022/11/24 02:49:35;;;;;;;26.10;4.93;;;;;;;7.37;100.00;100226.75;5033640;28;20033;-66
2022/11/24 02:52:01;;;;;;;23.08;5.30;;;;;;;7.38;100.00;100231.94;5033848;28;20383;-65
2022/11/24 02:54:27;;;;;;;18.60;4.35;;;;;;;7.39;100.00;100228.16;5032688;28;20037;-65
2022/11/24 02:56:53;;;;;;;26.35;4.82;;;;;;;7.43;100.00;100228.56;5032955;28;20086;-66
2022/11/24 02:59:18;;;;;;;22.80;4.85;;;;;;;7.45;100.00;100231.88;5033752;28;20033;-66
2022/11/24 03:01:43;;;;;;;27.38;5.40;;;;;;;7.47;100.00;100240.53;5030169;28;20130;-66
2022/11/24 03:04:09;;;;;;;23.15;5.22;;;;;;;7.50;100.00;100233.91;5033695;28;20040;-66
2022/11/24 03:06:34;;;;;;;27.95;5.10;;;;;;;7.48;100.00;100234.13;5030026;28;20040;-66
2022/11/24 03:08:59;;;;;;;24.85;4.68;;;;;;;7.50;100.00;100244.66;5033294;28;20037;-66
2022/11/24 03:11:25;;;;;;;23.77;5.10;;;;;;;7.48;100.00;100249.44;5033390;28;20045;-65
2022/11/24 03:13:51;;;;;;;22.83;4.68;;;;;;;7.49;100.00;100243.00;5033255;28;20448;-65
2022/11/24 03:16:16;;;;;;;28.83;5.72;;;;;;;7.50;100.00;100250.88;5028183;28;20384;-66
2022/11/24 03:18:42;;;;;;;26.42;5.28;;;;;;;7.51;100.00;100247.13;5013355;28;20026;-66
2022/11/24 03:21:07;;;;;;;25.48;5.25;;;;;;;7.52;100.00;100251.50;5013941;28;20038;-65
2022/11/24 03:23:33;;;;;;;23.13;5.10;;;;;;;7.54;100.00;100256.66;5013323;28;20377;-66
2022/11/24 03:26:09;;;;;;;29.95;6.30;;;;;;;7.58;100.00;100257.88;5013714;28;20033;-66
2022/11/24 03:28:35;;;;;;;24.83;5.88;;;;;;;7.60;100.00;100253.88;5032637;28;20029;-65
2022/11/24 03:31:01;;;;;;;27.42;5.40;;;;;;;7.61;100.00;100258.25;5033022;28;20039;-65
2022/11/24 03:33:26;;;;;;;25.77;5.75;;;;;;;7.62;100.00;100259.06;5032133;28;20354;-66
2022/11/24 03:35:52;;;;;;;24.90;5.20;;;;;;;7.63;100.00;100263.41;5031896;28;20060;-66
2022/11/24 03:38:17;;;;;;;24.52;5.20;;;;;;;7.62;100.00;100253.66;5032381;28;20032;-67
2022/11/24 03:40:42;;;;;;;26.85;5.10;;;;;;;7.63;100.00;100256.13;5032321;28;20025;-66
2022/11/24 03:43:08;;;;;;;26.60;5.90;;;;;;;7.67;100.00;100261.94;5032976;28;20071;-65
2022/11/24 03:45:33;;;;;;;31.15;5.68;;;;;;;7.69;100.00;100259.81;5032638;28;20028;-65
2022/11/24 03:47:58;;;;;;;26.88;5.32;;;;;;;7.71;100.00;100260.41;5031871;28;20064;-65
2022/11/24 03:50:24;;;;;;;27.00;5.05;;;;;;;7.74;100.00;100257.28;5031871;28;20029;-65
2022/11/24 03:52:49;;;;;;;25.02;5.00;;;;;;;7.74;100.00;100259.16;5032899;28;20448;-66
2022/11/24 03:55:14;;;;;;;26.40;5.55;;;;;;;7.78;100.00;100252.31;5031465;28;20479;-66
2022/11/24 03:57:40;;;;;;;29.58;6.22;;;;;;;7.78;100.00;100257.69;5031452;28;20055;-66
2022/11/24 04:00:06;;;;;;;26.27;5.55;;;;;;;7.79;100.00;100260.16;5032779;28;20030;-66
2022/11/24 04:02:31;;;;;;;23.77;5.47;;;;;;;7.81;100.00;100251.84;5029296;28;20052;-66
2022/11/24 04:04:58;;;;;;;25.52;5.40;;;;;;;7.81;100.00;100251.84;5031447;28;20034;-65
2022/11/24 04:07:23;;;;;;;26.00;5.55;;;;;;;7.80;100.00;100263.66;5020738;28;20415;-66
2022/11/24 04:09:49;;;;;;;29.40;5.95;;;;;;;7.80;100.00;100266.34;5012387;28;20030;-67
2022/11/24 04:14:58;;;;;;;22.92;5.20;;;;;;;7.79;100.00;100276.31;5012600;28;20041;-66
2022/11/24 04:17:23;;;;;;;29.90;5.15;;;;;;;7.80;100.00;100286.06;5023520;28;20034;-65
2022/11/24 04:19:48;;;;;;;26.48;5.72;;;;;;;7.81;100.00;100292.25;5031354;28;20457;-66
2022/11/24 04:22:14;;;;;;;24.10;5.25;;;;;;;7.79;100.00;100302.44;5031394;28;20034;-67
2022/11/24 04:24:39;;;;;;;20.80;5.60;;;;;;;7.77;100.00;100312.59;5032003;28;20384;-65
2022/11/24 04:27:04;;;;;;;25.65;4.95;;;;;;;7.81;100.00;100316.50;5023585;28;20358;-66
2022/11/24 04:29:29;;;;;;;22.63;4.90;;;;;;;7.74;100.00;100321.13;5012702;28;20068;-65
2022/11/24 04:31:55;;;;;;;28.48;5.25;;;;;;;7.72;100.00;100323.22;5012389;28;20392;-66
2022/11/24 04:34:20;;;;;;;25.40;4.80;;;;;;;7.71;100.00;100318.84;5012419;28;20049;-65
2022/11/24 04:36:45;;;;;;;18.63;4.47;;;;;;;7.62;100.00;100324.53;5017073;28;20036;-66
2022/11/24 04:39:10;;;;;;;22.40;4.68;;;;;;;7.60;100.00;100318.50;5032338;28;20060;-65
2022/11/24 04:41:36;;;;;;;25.25;5.03;;;;;;;7.55;100.00;100322.91;5030556;28;20078;-66
2022/11/24 04:44:01;;;;;;;17.00;3.78;;;;;;;7.52;100.00;100324.19;5031489;28;20030;-66
2022/11/24 04:46:26;;;;;;;18.85;3.85;;;;;;;7.48;100.00;100322.97;5032163;28;20061;-65
2022/11/24 04:48:51;;;;;;;15.18;3.67;;;;;;;7.46;100.00;100333.13;5031983;28;20053;-65
2022/11/24 04:51:17;;;;;;;17.08;3.03;;;;;;;7.43;100.00;100330.88;5031203;28;20022;-66
2022/11/24 04:53:42;;;;;;;15.48;3.20;;;;;;;7.40;100.00;100336.69;5034057;28;20461;-66
2022/11/24 04:56:08;;;;;;;14.73;3.10;;;;;;;7.37;100.00;100332.56;5035932;28;20468;-66
2022/11/24 04:58:33;;;;;;;11.50;2.60;;;;;;;7.35;100.00;100337.34;5036040;28;20033;-65
2022/11/24 05:00:58;;;;;;;10.07;2.67;;;;;;;7.32;100.00;100345.00;5032423;28;20049;-66
2022/11/24 05:03:24;;;;;;;8.50;2.30;;;;;;;7.32;100.00;100334.25;5035159;28;20056;-66
2022/11/24 05:05:49;;;;;;;14.75;2.80;;;;;;;7.30;100.00;100329.06;5033023;28;20025;-66
2022/11/24 05:08:14;;;;;;;9.90;2.00;;;;;;;7.26;100.00;100331.38;5034967;28;20465;-66
2022/11/24 05:10:39;;;;;;;10.98;2.30;;;;;;;7.26;100.00;100335.91;5035393;28;20057;-66
2022/11/24 05:13:09;;;;;;;10.00;2.60;;;;;;;7.22;100.00;100335.53;5034954;28;20380;-66
2022/11/24 05:15:36;;;;;;;6.03;1.92;;;;;;;7.21;100.00;100341.94;5035665;28;20045;-66
2022/11/24 05:18:06;;;;;;;9.27;2.22;;;;;;;7.21;100.00;100347.34;5034359;28;20447;-67
2022/11/24 05:20:32;;;;;;;13.75;2.30;;;;;;;7.23;100.00;100352.50;5035634;28;20026;-65
2022/11/24 05:23:05;;;;;;;13.23;2.97;;;;;;;7.25;100.00;100356.63;5033663;28;20030;-66
2022/11/24 05:25:32;;;;;;;9.93;2.70;;;;;;;7.26;100.00;100354.75;5035164;28;20436;-66
2022/11/24 05:28:02;;;;;;;11.40;3.08;;;;;;;7.27;100.00;100356.41;5035330;28;20052;-65
2022/11/24 05:30:28;;;;;;;9.15;2.30;;;;;;;7.31;100.00;100359.50;5034137;28;20494;-66
2022/11/24 05:32:54;;;;;;;11.45;2.65;;;;;;;7.32;100.00;100358.47;5034395;28;20549;-64
2022/11/24 05:35:20;;;;;;;12.93;3.00;;;;;;;7.32;100.00;100361.16;5035281;28;20084;-66
2022/11/24 05:37:46;;;;;;;15.45;2.63;;;;;;;7.33;100.00;100360.94;5032460;28;20083;-65
2022/11/24 05:40:11;;;;;;;14.20;2.78;;;;;;;7.34;100.00;100364.47;5035214;28;20029;-65
2022/11/24 05:42:39;;;;;;;16.92;3.75;;;;;;;7.35;100.00;100366.09;5034893;28;20026;-66
2022/11/24 05:45:10;;;;;;;19.70;3.65;;;;;;;7.37;100.00;100381.00;5034349;28;20056;-66
2022/11/24 05:47:36;;;;;;;17.37;4.07;;;;;;;7.39;100.00;100372.72;5035073;28;20029;-67
2022/11/24 05:50:02;;;;;;;21.83;4.80;;;;;;;7.40;100.00;100380.56;5034770;28;20041;-66
2022/11/24 05:52:27;;;;;;;22.83;4.50;;;;;;;7.42;100.00;100383.06;5034247;28;20044;-66
2022/11/24 05:54:53;;;;;;;19.95;4.57;;;;;;;7.43;100.00;100388.22;5016999;28;20025;-67
2022/11/24 05:57:18;;;;;;;24.35;5.50;;;;;;;7.48;100.00;100387.56;5015203;28;20034;-66
2022/11/24 05:59:43;;;;;;;27.00;4.75;;;;;;;7.45;100.00;100391.50;5015041;28;20029;-66
2022/11/24 06:02:09;;;;;;;17.48;3.88;;;;;;;7.48;100.00;100394.84;5023043;28;20115;-65
2022/11/24 06:04:34;;;;;;;20.25;4.20;;;;;;;7.50;100.00;100411.59;5019729;28;20033;-66
2022/11/24 06:07:00;;;;;;;16.50;3.92;;;;;;;7.50;100.00;100411.59;5014752;28;20034;-66
2022/11/24 06:09:25;;;;;;;17.05;3.90;;;;;;;7.54;100.00;100419.00;5014954;28;20045;-66
2022/11/24 06:11:51;;;;;;;19.65;3.50;;;;;;;7.51;100.00;100424.84;5023410;28;20111;-65
2022/11/24 06:14:16;;;;;;;19.00;3.60;;;;;;;7.52;100.00;100431.03;5033824;28;20036;-66
2022/11/24 06:16:41;;;;;;;16.75;3.65;;;;;;;7.50;100.00;100427.75;5034451;28;20523;-66
2022/11/24 06:19:08;;;;;;;15.68;3.00;;;;;;;7.50;100.00;100433.13;5034638;28;20025;-66
2022/11/24 06:21:34;;;;;;;14.68;3.15;;;;;;;7.53;100.00;100435.38;5032540;28;20034;-65
2022/11/24 06:23:59;;;;;;;12.15;3.00;;;;;;;7.52;100.00;100437.25;5033475;28;20092;-65
2022/11/24 06:26:24;;;;;;;12.23;3.10;;;;;;;7.50;100.00;100449.28;5034351;28;20358;-65
2022/11/24 06:28:49;;;;;;;11.20;3.00;;;;;;;7.48;100.00;100452.19;5027829;28;20034;-66
2022/11/24 06:31:15;;;;;;;11.25;2.78;;;;;;;7.49;100.00;100461.94;5014378;28;20389;-65
2022/11/24 06:33:40;;;;;;;10.88;2.88;;;;;;;7.49;100.00;100471.84;5014614;28;20030;-65
2022/11/24 06:36:08;;;;;;;12.98;2.78;;;;;;;7.51;100.00;100469.78;5013330;28;20100;-66
2022/11/24 06:38:34;;;;;;;10.10;2.30;;;;;;;7.50;100.00;100477.03;5029942;28;20036;-66
2022/11/24 06:41:06;;;;;;;12.32;2.83;;;;;;;7.48;100.00;100479.09;5033986;28;20120;-65
2022/11/24 06:43:32;;;;;;;10.40;2.53;;;;;;;7.47;100.00;100482.00;5032271;28;20426;-66
2022/11/24 06:45:58;;;;;;;14.15;2.80;;;;;;;7.46;100.00;100497.34;5033703;28;20052;-65
2022/11/24 06:48:25;;;;;;;9.68;2.22;;;;;;;7.43;100.00;100497.78;5033965;28;20022;-65
2022/11/24 06:50:51;;;;;;;9.63;2.28;;;;;;;7.42;100.00;100496.13;5032464;28;20030;-67
2022/11/24 06:53:16;;;;;;;11.23;2.60;;;;;;;7.39;100.00;100507.31;5016670;28;20037;-65
2022/11/24 06:55:42;;;;;;;9.93;2.42;;;;;;;7.37;100.00;100518.28;5031890;28;20030;-67
2022/11/24 06:58:08;;;;;;;10.65;2.38;;;;;;;7.34;100.00;100509.81;5032871;28;20112;-65
2022/11/24 07:00:33;;;;;;;11.07;2.47;;;;;;;7.29;100.00;100518.50;5029654;28;20124;-67
2022/11/24 07:02:59;;;;;;;11.18;2.33;;;;;;;7.25;100.00;100528.88;5032126;28;20128;-65
2022/11/24 07:05:25;;;;;;;11.30;2.50;;;;;;;7.22;100.00;100523.91;5033438;28;20022;-65
2022/11/24 07:07:50;;;;;;;11.45;2.53;;;;;;;7.19;100.00;100542.38;5033123;28;20033;-67
2022/11/24 07:10:16;;;;;;;8.10;2.10;;;;;;;7.18;100.00;100549.59;5033270;28;20480;-66
2022/11/24 07:12:41;;;;;;;8.25;2.00;;;;;;;7.16;100.00;100554.38;5025197;28;20034;-66
2022/11/24 07:15:07;;;;;;;9.75;2.25;;;;;;;7.13;100.00;100565.56;5025334;28;20052;-67
2022/11/24 07:17:39;;;;;;;9.32;2.45;;;;;;;7.13;100.00;100568.25;5033306;28;20116;-66
2022/11/24 07:20:05;;;;;;;;;;;;;;;7.34;100.00;100577.94;5033844;28;20541;-66
2022/11/24 07:22:30;;;;;;;10.00;1.80;;;;;;;7.15;100.00;100585.00;5033288;28;20003;-66
2022/11/24 07:24:56;;;;;;;10.80;2.60;;;;;;;7.12;100.00;100580.03;5032069;28;20033;-67
2022/11/24 07:27:21;;;;;;;14.00;2.53;;;;;;;7.13;100.00;100583.56;5029374;28;20072;-66
2022/11/24 07:29:46;;;;;;;11.05;2.40;;;;;;;7.15;100.00;100586.88;5013149;28;20465;-67
2022/11/24 07:32:11;;;;;;;9.30;2.40;;;;;;;7.15;100.00;100590.38;5014213;28;20026;-67
2022/11/24 07:34:37;;;;;;;10.73;2.47;;;;;;;7.12;100.00;100593.50;5032023;28;20426;-65
2022/11/24 07:37:02;;;;;;;6.63;1.98;;;;;;;7.12;100.00;100598.06;5022905;28;20041;-66
2022/11/24 07:39:27;;;;;;;11.57;2.00;;;;;;;7.08;100.00;100598.47;5013451;28;20025;-66
2022/11/24 07:41:53;;;;;;;10.82;2.50;;;;;;;7.05;100.00;100595.34;5025740;28;20084;-67
2022/11/24 07:44:18;;;;;;;10.00;2.45;;;;;;;7.03;100.00;100605.50;5035777;28;20026;-66
2022/11/24 07:46:43;;;;;;;10.15;2.55;;;;;;;7.03;100.00;100610.88;5035498;28;20034;-66
2022/11/24 07:49:08;;;;;;;11.23;2.47;;;;;;;7.00;100.00;100620.19;5028703;28;20113;-67
2022/11/24 07:51:35;;;;;;;8.75;1.92;;;;;;;6.98;100.00;100619.56;5029126;28;20115;-67
2022/11/24 07:54:01;;;;;;;10.15;2.13;;;;;;;6.95;100.00;100616.47;5012905;28;20033;-67
2022/11/24 07:56:26;;;;;;;7.97;2.00;;;;;;;6.96;100.00;100624.34;5027473;28;20084;-67
2022/11/24 07:58:51;;;;;;;10.50;2.80;;;;;;;6.97;100.00;100623.28;5023952;28;20049;-67
2022/11/24 08:01:17;;;;;;;8.10;2.50;;;;;;;6.97;100.00;100634.06;5012022;28;20050;-68
2022/11/24 08:03:43;;;;;;;10.32;2.78;;;;;;;6.98;100.00;100642.97;5031176;28;20116;-70
2022/11/24 08:06:10;;;;;;;10.32;2.28;;;;;;;6.96;100.00;100643.19;5031774;28;20037;-68
2022/11/24 08:08:35;;;;;;;10.45;2.40;;;;;;;6.95;100.00;100646.91;5032663;28;20029;-72
2022/11/24 08:11:05;;;;;;;8.95;2.05;;;;;;;6.96;100.00;100653.09;5032284;28;20091;-71
2022/11/24 08:13:31;;;;;;;8.45;2.30;;;;;;;6.99;100.00;100656.22;5016828;28;20096;-67
2022/11/24 08:15:56;;;;;;;12.88;2.60;;;;;;;7.02;100.00;100652.25;5012736;28;20462;-70
2022/11/24 08:18:23;;;;;;;12.10;2.50;;;;;;;7.00;100.00;100659.72;5027070;28;20053;-66
2022/11/24 08:20:48;;;;;;;11.45;2.80;;;;;;;7.01;100.00;100658.69;5031535;28;20041;-74
2022/11/24 08:23:14;;;;;;;12.85;2.55;;;;;;;7.04;100.00;100677.13;5030304;28;20040;-73
2022/11/24 08:25:39;;;;;;;7.50;2.33;;;;;;;7.04;100.00;100685.19;5031792;28;20045;-68
2022/11/24 08:28:04;;;;;;;12.10;2.60;;;;;;;7.06;100.00;100685.81;5022135;28;20025;-67
2022/11/24 08:30:30;;;;;;;14.50;3.35;;;;;;;7.06;100.00;100683.13;5020994;28;20022;-69
2022/11/24 08:32:59;;;;;;;11.73;2.90;;;;;;;7.07;100.00;100677.53;5032545;28;20104;-69
2022/11/24 08:35:24;;;;;;;12.57;3.03;;;;;;;7.11;100.00;100683.34;5034395;28;20090;-68
2022/11/24 08:37:50;;;;;;;9.70;2.63;;;;;;;7.11;100.00;100683.34;5035117;28;20037;-68
2022/11/24 08:40:16;;;;;;;13.45;2.70;;;;;;;7.13;100.00;100692.03;5032751;28;20033;-69
2022/11/24 08:42:41;;;;;;;9.10;2.20;;;;;;;7.14;100.00;100699.06;5023735;28;20033;-69
2022/11/24 08:45:06;;;;;;;11.30;3.10;;;;;;;7.17;100.00;100712.13;5031676;28;20053;-70
2022/11/24 08:47:32;;;;;;;9.52;2.45;;;;;;;7.20;100.00;100711.69;5035639;28;20029;-70
2022/11/24 08:50:00;;;;;;;16.25;3.67;;;;;;;7.19;100.00;100715.41;5036172;28;20029;-74
2022/11/24 08:52:25;;;;;;;14.43;2.85;;;;;;;7.23;100.00;100724.75;5028408;28;20022;-72
2022/11/24 08:54:51;;;;;;;13.32;2.78;;;;;;;7.25;100.00;100724.53;5031787;28;20021;-71
2022/11/24 08:57:16;;;;;;;13.35;3.08;;;;;;;7.25;100.00;100738.81;5034748;28;20083;-73
2022/11/24 08:59:41;;;;;;;10.48;3.08;;;;;;;7.27;100.00;100728.66;5034756;28;20026;-71
2022/11/24 09:02:13;;;;;;;10.80;2.90;;;;;;;7.32;100.00;100743.38;5032187;28;20467;-72
2022/11/24 09:04:38;;;;;;;15.57;3.40;;;;;;;7.35;100.00;100742.97;5034497;28;20041;-71
2022/11/24 09:07:04;;;;;;;13.80;2.92;;;;;;;7.36;100.00;100755.41;5035737;28;20034;-72
2022/11/24 09:09:29;;;;;;;15.30;3.03;;;;;;;7.39;100.00;100746.91;5035957;28;20399;-69
2022/11/24 09:11:55;;;;;;;16.35;3.58;;;;;;;7.39;100.00;100744.22;5035659;28;20057;-71
2022/11/24 09:14:20;;;;;;;9.13;2.75;;;;;;;7.41;100.00;100747.50;5034492;28;20159;-71
2022/11/24 09:16:45;;;;;;;16.90;3.90;;;;;;;7.44;100.00;100753.34;5034463;28;20033;-69
2022/11/24 09:19:10;;;;;;;13.30;3.60;;;;;;;7.47;100.00;100764.72;5035396;28;20112;-70
2022/11/24 09:21:37;;;;;;;14.50;4.03;;;;;;;7.47;100.00;100757.44;5035654;28;20037;-71
2022/11/24 09:24:04;;;;;;;18.55;3.90;;;;;;;7.51;100.00;100757.88;5034447;28;20491;-69
2022/11/24 09:26:32;;;;;;;18.20;4.07;;;;;;;7.53;100.00;100767.41;5034876;28;20060;-68
2022/11/24 09:28:58;;;;;;;16.83;4.25;;;;;;;7.59;100.00;100777.38;5035015;28;20045;-70
2022/11/24 09:31:26;;;;;;;14.38;4.25;;;;;;;7.61;100.00;100775.28;5035387;28;20033;-71
2022/11/24 09:33:52;;;;;;;18.55;4.40;;;;;;;7.66;100.00;100779.22;5034679;28;20048;-71
2022/11/24 09:36:18;;;;;;;16.27;4.90;;;;;;;7.67;100.00;100778.16;5035449;28;20025;-70
2022/11/24 09:38:44;;;;;;;17.17;4.80;;;;;;;7.71;100.00;100782.94;5034648;28;20492;-70
2022/11/24 09:41:37;;;;;;;16.75;4.00;;;;;;;7.79;100.00;100788.13;5034812;28;20044;-69
2022/11/24 09:44:39;;;;;;;21.92;4.50;;;;;;;7.84;100.00;100787.50;5034018;28;20121;-71
2022/11/24 09:47:31;;;;;;;15.68;3.75;;;;;;;7.90;100.00;100788.53;5034655;28;20037;-72
2022/11/24 09:50:09;;;;;;;18.85;4.50;;;;;;;7.92;100.00;100795.34;5034538;28;20423;-69
2022/11/24 09:52:42;;;;;;;18.02;4.07;;;;;;;7.95;100.00;100807.59;5033907;28;20037;-67
2022/11/24 09:55:37;;;;;;;19.45;4.03;;;;;;;8.01;100.00;100805.94;5015102;28;20021;-68
2022/11/24 09:58:40;;;;;;;15.80;4.35;;;;;;;8.08;100.00;100817.53;5015199;28;20038;-69
2022/11/24 10:01:16;;;;;;;15.10;3.75;;;;;;;8.09;100.00;100821.88;5015697;28;20072;-72
2022/11/24 10:03:46;;;;;;;24.58;4.65;;;;;;;8.11;100.00;100817.13;5025824;28;20034;-68
2022/11/24 10:06:39;;;;;;;14.20;3.42;;;;;;;8.19;100.00;100818.78;5033147;28;20511;-72
2022/11/24 10:09:35;;;;;;;18.40;3.95;;;;;;;8.21;100.00;100827.47;5034282;28;20112;-68
2022/11/24 10:12:09;;;;;;;17.75;4.15;;;;;;;8.21;100.00;100828.28;5034035;28;20045;-69
2022/11/24 10:14:56;;;;;;;17.35;3.97;;;;;;;8.29;100.00;100827.25;5034451;28;20076;-68
2022/11/24 10:17:45;;;;;;;15.38;4.03;;;;;;;8.30;100.00;100834.28;5032665;28;20384;-70
2022/11/24 10:20:26;;;;;;;20.58;4.22;;;;;;;8.31;100.00;100839.47;5034317;28;20036;-68
2022/11/24 10:23:30;;;;;;;14.82;3.83;;;;;;;8.41;100.00;100843.59;5031257;28;20033;-68
2022/11/24 10:25:59;;;;;;;18.08;4.47;;;;;;;8.43;100.00;100847.75;5030430;28;20033;-72
2022/11/24 10:28:32;;;;;;;20.65;4.55;;;;;;;8.50;100.00;100858.56;5034158;28;20104;-68
2022/11/24 10:31:21;;;;;;;17.45;4.40;;;;;;;8.55;100.00;100858.75;5042892;28;20068;-67
2022/11/24 10:33:46;;;;;;;15.60;4.10;;;;;;;8.57;100.00;100859.34;5046884;28;20029;-66
2022/11/24 10:36:43;;;;;;;18.60;4.25;;;;;;;8.65;100.00;100861.00;5039182;28;20156;-71
2022/11/24 10:39:19;;;;;;;16.90;3.95;;;;;;;8.67;100.00;100858.94;5031112;28;20052;-70
2022/11/24 10:41:56;;;;;;;17.75;4.03;;;;;;;8.71;100.00;100862.03;5034245;28;20029;-69
2022/11/24 10:44:22;;;;;;;19.05;3.90;;;;;;;8.73;100.00;100862.66;5033773;28;20029;-68
2022/11/24 10:46:48;;;;;;;19.48;3.53;;;;;;;8.77;100.00;100858.47;5032581;28;20621;-69
2022/11/24 10:49:22;;;;;;;14.95;3.58;;;;;;;8.80;100.00;100866.13;5032457;28;20033;-69
2022/11/24 10:52:20;;;;;;;16.33;4.40;;;;;;;8.81;100.00;100854.31;5027857;28;20032;-70
2022/11/24 10:54:59;;;;;;;15.82;3.97;;;;;;;8.88;100.00;100863.22;5002188;28;20054;-68
2022/11/24 10:57:28;;;;;;;17.45;4.32;;;;;;;8.88;100.00;100863.22;5032736;28;20065;-70
2022/11/24 10:59:54;;;;;;;17.02;3.78;;;;;;;8.93;100.00;100854.47;5033747;28;20040;-72
2022/11/24 11:02:27;;;;;;;22.23;4.25;;;;;;;8.94;100.00;100862.38;5030176;28;20490;-71
2022/11/24 11:04:53;;;;;;;20.45;3.90;;;;;;;8.98;100.00;100851.97;5034208;28;20530;-71
2022/11/24 11:07:21;;;;;;;20.92;3.85;;;;;;;9.00;100.00;100856.09;5016436;28;20109;-72
2022/11/24 11:09:47;;;;;;;20.55;4.38;;;;;;;9.05;100.00;100861.69;5014297;28;20180;-71
2022/11/24 11:12:22;;;;;;;17.50;3.97;;;;;;;9.09;100.00;100856.69;5013580;28;20046;-68
2022/11/24 11:14:48;;;;;;;21.67;4.85;;;;;;;9.09;100.00;100859.41;5013888;28;20049;-71
2022/11/24 11:17:34;;;;;;;17.73;4.47;;;;;;;9.16;100.00;100853.94;5029021;28;20057;-68
2022/11/24 11:20:23;;;;;;;16.65;3.75;;;;;;;9.22;100.00;100855.78;5033419;28;20052;-69
2022/11/24 11:22:49;;;;;;;21.48;4.03;;;;;;;9.17;100.00;100851.03;5033451;28;20492;-68
2022/11/24 11:25:21;;;;;;;17.52;4.25;;;;;;;9.24;100.00;100864.53;5032399;28;20030;-71
2022/11/24 11:27:47;;;;;;;19.63;4.57;;;;;;;9.26;100.00;100850.81;5033286;28;20032;-68